sensor_id;sensor_type;location;lat;lon;timestamp;pressure;altitude;pressure_sealevel;temperature
26158;BMP280;67284;44.782;10.282;2023-04-24T00:01:30;99996.91;;;16.09
26158;BMP280;67284;44.782;10.282;2023-04-24T00:06:23;100007.31;;;16.09
26158;BMP280;67284;44.782;10.282;2023-04-24T00:11:15;100019.47;;;16.07
26158;BMP280;67284;44.782;10.282;2023-04-24T00:16:07;100048.16;;;16.04
26158;BMP280;67284;44.782;10.282;2023-04-24T00:20:59;100066.44;;;16.01
26158;BMP280;67284;44.782;10.282;2023-04-24T00:25:51;100052.78;;;15.97
26158;BMP280;67284;44.782;10.282;2023-04-24T00:30:43;100036.47;;;15.94
26158;BMP280;67284;44.782;10.282;2023-04-24T00:35:34;100023.69;;;15.89
26158;BMP280;67284;44.782;10.282;2023-04-24T00:40:27;100031.63;;;15.86
26158;BMP280;67284;44.782;10.282;2023-04-24T00:45:19;100016.13;;;15.85
26158;BMP280;67284;44.782;10.282;2023-04-24T00:50:11;100001.66;;;15.79
26158;BMP280;67284;44.782;10.282;2023-04-24T00:55:06;99988.00;;;15.74
26158;BMP280;67284;44.782;10.282;2023-04-24T00:59:58;99992.50;;;15.71
26158;BMP280;67284;44.782;10.282;2023-04-24T01:04:50;100008.13;;;15.69
26158;BMP280;67284;44.782;10.282;2023-04-24T01:09:45;99994.31;;;15.69
26158;BMP280;67284;44.782;10.282;2023-04-24T01:14:39;99992.75;;;15.65
26158;BMP280;67284;44.782;10.282;2023-04-24T01:19:32;99989.22;;;15.66
26158;BMP280;67284;44.782;10.282;2023-04-24T01:24:24;99983.22;;;15.65
26158;BMP280;67284;44.782;10.282;2023-04-24T01:29:15;99992.75;;;15.65
26158;BMP280;67284;44.782;10.282;2023-04-24T01:34:08;99992.88;;;15.62
26158;BMP280;67284;44.782;10.282;2023-04-24T01:39:00;99995.53;;;15.61
26158;BMP280;67284;44.782;10.282;2023-04-24T01:43:52;99992.28;;;15.56
26158;BMP280;67284;44.782;10.282;2023-04-24T01:48:45;99976.91;;;15.51
26158;BMP280;67284;44.782;10.282;2023-04-24T01:53:37;99969.28;;;15.48
26158;BMP280;67284;44.782;10.282;2023-04-24T01:58:29;99980.53;;;15.47
26158;BMP280;67284;44.782;10.282;2023-04-24T02:03:21;99977.94;;;15.47
26158;BMP280;67284;44.782;10.282;2023-04-24T02:08:13;99967.69;;;15.44
26158;BMP280;67284;44.782;10.282;2023-04-24T02:13:04;99975.53;;;15.43
26158;BMP280;67284;44.782;10.282;2023-04-24T02:17:56;100005.00;;;15.40
26158;BMP280;67284;44.782;10.282;2023-04-24T02:22:48;99993.00;;;15.38
26158;BMP280;67284;44.782;10.282;2023-04-24T02:27:42;100003.50;;;15.35
26158;BMP280;67284;44.782;10.282;2023-04-24T02:32:33;99996.50;;;15.37
26158;BMP280;67284;44.782;10.282;2023-04-24T02:37:25;99989.72;;;15.34
26158;BMP280;67284;44.782;10.282;2023-04-24T02:42:17;99998.38;;;15.33
26158;BMP280;67284;44.782;10.282;2023-04-24T02:47:09;99996.63;;;15.34
26158;BMP280;67284;44.782;10.282;2023-04-24T02:52:01;100013.81;;;15.36
26158;BMP280;67284;44.782;10.282;2023-04-24T02:56:53;100003.31;;;15.39
26158;BMP280;67284;44.782;10.282;2023-04-24T03:01:45;99992.00;;;15.42
26158;BMP280;67284;44.782;10.282;2023-04-24T03:06:36;99979.03;;;15.42
26158;BMP280;67284;44.782;10.282;2023-04-24T03:11:28;99994.59;;;15.42
26158;BMP280;67284;44.782;10.282;2023-04-24T03:16:20;100024.00;;;15.41
26158;BMP280;67284;44.782;10.282;2023-04-24T03:21:12;100024.06;;;15.39
26158;BMP280;67284;44.782;10.282;2023-04-24T03:26:05;100016.28;;;15.39
26158;BMP280;67284;44.782;10.282;2023-04-24T03:30:59;100019.78;;;15.38
26158;BMP280;67284;44.782;10.282;2023-04-24T03:35:57;100030.16;;;15.38
26158;BMP280;67284;44.782;10.282;2023-04-24T03:40:49;100030.19;;;15.37
26158;BMP280;67284;44.782;10.282;2023-04-24T03:45:55;100029.28;;;15.38
26158;BMP280;67284;44.782;10.282;2023-04-24T03:50:48;100011.22;;;15.36
26158;BMP280;67284;44.782;10.282;2023-04-24T03:55:40;100008.69;;;15.35
26158;BMP280;67284;44.782;10.282;2023-04-24T04:00:33;100003.50;;;15.35
26158;BMP280;67284;44.782;10.282;2023-04-24T04:05:46;100015.56;;;15.36
26158;BMP280;67284;44.782;10.282;2023-04-24T04:10:38;100018.16;;;15.36
26158;BMP280;67284;44.782;10.282;2023-04-24T04:15:29;100014.75;;;15.34
26158;BMP280;67284;44.782;10.282;2023-04-24T04:20:21;100025.19;;;15.32
26158;BMP280;67284;44.782;10.282;2023-04-24T04:25:13;100001.94;;;15.31
26158;BMP280;67284;44.782;10.282;2023-04-24T04:30:07;100002.84;;;15.30
26158;BMP280;67284;44.782;10.282;2023-04-24T04:35:11;100008.81;;;15.32
26158;BMP280;67284;44.782;10.282;2023-04-24T04:40:04;100013.16;;;15.31
26158;BMP280;67284;44.782;10.282;2023-04-24T04:45:12;100011.41;;;15.32
26158;BMP280;67284;44.782;10.282;2023-04-24T04:50:23;100012.16;;;15.34
26158;BMP280;67284;44.782;10.282;2023-04-24T04:55:20;99992.38;;;15.33
26158;BMP280;67284;44.782;10.282;2023-04-24T05:00:35;99985.47;;;15.32
26158;BMP280;67284;44.782;10.282;2023-04-24T05:05:40;99965.66;;;15.31
26158;BMP280;67284;44.782;10.282;2023-04-24T05:10:36;99946.88;;;15.26
26158;BMP280;67284;44.782;10.282;2023-04-24T05:15:29;99957.16;;;15.27
26158;BMP280;67284;44.782;10.282;2023-04-24T05:20:24;99976.13;;;15.28
26158;BMP280;67284;44.782;10.282;2023-04-24T05:25:18;99988.19;;;15.29
26158;BMP280;67284;44.782;10.282;2023-04-24T05:30:16;100007.25;;;15.28
26158;BMP280;67284;44.782;10.282;2023-04-24T05:35:08;100026.22;;;15.28
26158;BMP280;67284;44.782;10.282;2023-04-24T05:40:00;100017.59;;;15.28
26158;BMP280;67284;44.782;10.282;2023-04-24T05:44:53;100027.97;;;15.28
26158;BMP280;67284;44.782;10.282;2023-04-24T05:49:48;100017.59;;;15.28
26158;BMP280;67284;44.782;10.282;2023-04-24T05:54:41;100011.59;;;15.27
26158;BMP280;67284;44.782;10.282;2023-04-24T05:59:37;100010.72;;;15.27
26158;BMP280;67284;44.782;10.282;2023-04-24T06:04:31;100008.19;;;15.25
26158;BMP280;67284;44.782;10.282;2023-04-24T06:09:24;100027.97;;;15.28
26158;BMP280;67284;44.782;10.282;2023-04-24T06:14:16;100045.22;;;15.29
26158;BMP280;67284;44.782;10.282;2023-04-24T06:19:31;100041.69;;;15.31
26158;BMP280;67284;44.782;10.282;2023-04-24T06:24:27;100040.75;;;15.32
26158;BMP280;67284;44.782;10.282;2023-04-24T06:29:19;100032.97;;;15.32
26158;BMP280;67284;44.782;10.282;2023-04-24T06:34:11;100014.75;;;15.34
26158;BMP280;67284;44.782;10.282;2023-04-24T06:39:04;100029.41;;;15.35
26158;BMP280;67284;44.782;10.282;2023-04-24T06:43:56;100027.72;;;15.34
26158;BMP280;67284;44.782;10.282;2023-04-24T06:48:48;100040.81;;;15.31
26158;BMP280;67284;44.782;10.282;2023-04-24T06:53:40;100053.78;;;15.31
26158;BMP280;67284;44.782;10.282;2023-04-24T06:58:32;100055.47;;;15.32
26158;BMP280;67284;44.782;10.282;2023-04-24T07:03:24;100052.81;;;15.33
26158;BMP280;67284;44.782;10.282;2023-04-24T07:08:16;100063.19;;;15.33
26158;BMP280;67284;44.782;10.282;2023-04-24T07:13:09;100053.66;;;15.34
26158;BMP280;67284;44.782;10.282;2023-04-24T07:18:00;100058.78;;;15.35
26158;BMP280;67284;44.782;10.282;2023-04-24T07:22:56;100058.72;;;15.37
26158;BMP280;67284;44.782;10.282;2023-04-24T07:27:48;100066.47;;;15.37
26158;BMP280;67284;44.782;10.282;2023-04-24T07:32:40;100063.84;;;15.38
26158;BMP280;67284;44.782;10.282;2023-04-24T07:37:32;100064.69;;;15.39
26158;BMP280;67284;44.782;10.282;2023-04-24T07:42:24;100068.06;;;15.41
26158;BMP280;67284;44.782;10.282;2023-04-24T07:47:16;100065.41;;;15.42
26158;BMP280;67284;44.782;10.282;2023-04-24T07:52:08;100082.59;;;15.45
26158;BMP280;67284;44.782;10.282;2023-04-24T07:56:59;100084.16;;;15.49
26158;BMP280;67284;44.782;10.282;2023-04-24T08:01:52;100084.16;;;15.49
26158;BMP280;67284;44.782;10.282;2023-04-24T08:06:44;100075.38;;;15.53
26158;BMP280;67284;44.782;10.282;2023-04-24T08:11:36;100079.69;;;15.52
26158;BMP280;67284;44.782;10.282;2023-04-24T08:16:28;100079.59;;;15.55
26158;BMP280;67284;44.782;10.282;2023-04-24T08:21:20;100076.81;;;15.60
26158;BMP280;67284;44.782;10.282;2023-04-24T08:26:13;100069.81;;;15.62
26158;BMP280;67284;44.782;10.282;2023-04-24T08:31:05;100074.88;;;15.64
26158;BMP280;67284;44.782;10.282;2023-04-24T08:35:56;100066.19;;;15.65
26158;BMP280;67284;44.782;10.282;2023-04-24T08:40:48;100061.00;;;15.65
26158;BMP280;67284;44.782;10.282;2023-04-24T08:45:41;100055.69;;;15.68
26158;BMP280;67284;44.782;10.282;2023-04-24T08:50:34;100065.03;;;15.72
26158;BMP280;67284;44.782;10.282;2023-04-24T08:55:26;100076.09;;;15.77
26158;BMP280;67284;44.782;10.282;2023-04-24T09:00:20;100066.50;;;15.79
26158;BMP280;67284;44.782;10.282;2023-04-24T09:05:13;100064.56;;;15.84
26158;BMP280;67284;44.782;10.282;2023-04-24T09:10:06;100067.88;;;15.88
26158;BMP280;67284;44.782;10.282;2023-04-24T09:14:58;100068.56;;;15.91
26158;BMP280;67284;44.782;10.282;2023-04-24T09:19:51;100074.34;;;15.98
26158;BMP280;67284;44.782;10.282;2023-04-24T09:24:45;100081.25;;;15.99
26158;BMP280;67284;44.782;10.282;2023-04-24T09:29:37;100073.47;;;15.99
26158;BMP280;67284;44.782;10.282;2023-04-24T09:34:28;100073.34;;;16.02
26158;BMP280;67284;44.782;10.282;2023-04-24T09:39:20;100071.34;;;16.08
26158;BMP280;67284;44.782;10.282;2023-04-24T09:49:11;100078.22;;;16.29
26158;BMP280;67284;44.782;10.282;2023-04-24T09:54:13;100077.13;;;16.34
26158;BMP280;67284;44.782;10.282;2023-04-24T09:59:06;100079.88;;;16.31
26158;BMP280;67284;44.782;10.282;2023-04-24T10:03:58;100079.03;;;16.31
26158;BMP280;67284;44.782;10.282;2023-04-24T10:08:50;100078.31;;;16.27
26158;BMP280;67284;44.782;10.282;2023-04-24T10:13:43;100065.03;;;16.35
26158;BMP280;67284;44.782;10.282;2023-04-24T10:18:35;100069.09;;;16.40
26158;BMP280;67284;44.782;10.282;2023-04-24T10:23:27;100077.72;;;16.41
26158;BMP280;67284;44.782;10.282;2023-04-24T10:28:20;100077.81;;;16.39
26158;BMP280;67284;44.782;10.282;2023-04-24T10:33:13;100076.44;;;16.51
26158;BMP280;67284;44.782;10.282;2023-04-24T10:38:08;100078.13;;;16.52
26158;BMP280;67284;44.782;10.282;2023-04-24T10:43:05;100076.94;;;16.59
26158;BMP280;67284;44.782;10.282;2023-04-24T10:48:02;100071.53;;;16.63
26158;BMP280;67284;44.782;10.282;2023-04-24T10:53:06;100070.16;;;16.74
26158;BMP280;67284;44.782;10.282;2023-04-24T10:58:02;100076.78;;;16.81
26158;BMP280;67284;44.782;10.282;2023-04-24T11:02:55;100079.16;;;16.86
26158;BMP280;67284;44.782;10.282;2023-04-24T11:08:09;100068.47;;;16.92
26158;BMP280;67284;44.782;10.282;2023-04-24T11:13:04;100056.06;;;16.98
26158;BMP280;67284;44.782;10.282;2023-04-24T11:17:56;100060.66;;;16.93
26158;BMP280;67284;44.782;10.282;2023-04-24T11:22:53;100052.50;;;17.01
26158;BMP280;67284;44.782;10.282;2023-04-24T11:27:46;100034.53;;;16.96
26158;BMP280;67284;44.782;10.282;2023-04-24T11:32:41;100045.06;;;16.93
26158;BMP280;67284;44.782;10.282;2023-04-24T11:37:42;100033.72;;;16.94
26158;BMP280;67284;44.782;10.282;2023-04-24T11:42:38;100035.06;;;17.03
26158;BMP280;67284;44.782;10.282;2023-04-24T11:47:31;100026.06;;;17.10
26158;BMP280;67284;44.782;10.282;2023-04-24T11:52:29;100028.97;;;17.22
26158;BMP280;67284;44.782;10.282;2023-04-24T11:57:22;100029.81;;;17.22
26158;BMP280;67284;44.782;10.282;2023-04-24T12:02:25;100028.13;;;17.21
26158;BMP280;67284;44.782;10.282;2023-04-24T12:07:18;100024.41;;;17.27
26158;BMP280;67284;44.782;10.282;2023-04-24T12:12:11;100022.00;;;17.22
26158;BMP280;67284;44.782;10.282;2023-04-24T12:17:03;100026.41;;;17.20
26158;BMP280;67284;44.782;10.282;2023-04-24T12:22:03;100022.88;;;17.23
26158;BMP280;67284;44.782;10.282;2023-04-24T12:26:55;100018.34;;;17.26
26158;BMP280;67284;44.782;10.282;2023-04-24T12:31:48;100010.56;;;17.26
26158;BMP280;67284;44.782;10.282;2023-04-24T12:36:40;100010.97;;;17.36
26158;BMP280;67284;44.782;10.282;2023-04-24T12:41:32;100000.88;;;17.30
26158;BMP280;67284;44.782;10.282;2023-04-24T12:46:23;100006.69;;;17.35
26158;BMP280;67284;44.782;10.282;2023-04-24T12:51:16;100006.88;;;17.49
26158;BMP280;67284;44.782;10.282;2023-04-24T12:56:08;99996.22;;;17.53
26158;BMP280;67284;44.782;10.282;2023-04-24T13:01:00;99988.25;;;17.39
26158;BMP280;67284;44.782;10.282;2023-04-24T13:05:52;99983.28;;;17.35
26158;BMP280;67284;44.782;10.282;2023-04-24T13:10:44;99981.91;;;17.45
26158;BMP280;67284;44.782;10.282;2023-04-24T13:15:36;99993.25;;;17.44
26158;BMP280;67284;44.782;10.282;2023-04-24T13:20:28;99989.53;;;17.66
26158;BMP280;67284;44.782;10.282;2023-04-24T13:25:20;99980.44;;;17.58
26158;BMP280;67284;44.782;10.282;2023-04-24T13:30:12;99980.28;;;17.61
26158;BMP280;67284;44.782;10.282;2023-04-24T13:35:04;99975.31;;;17.56
26158;BMP280;67284;44.782;10.282;2023-04-24T13:39:56;99955.47;;;17.54
26158;BMP280;67284;44.782;10.282;2023-04-24T13:44:48;99942.00;;;17.63
26158;BMP280;67284;44.782;10.282;2023-04-24T13:49:40;99948.66;;;17.68
26158;BMP280;67284;44.782;10.282;2023-04-24T13:54:32;99933.22;;;17.65
26158;BMP280;67284;44.782;10.282;2023-04-24T13:59:24;99928.75;;;17.67
26158;BMP280;67284;44.782;10.282;2023-04-24T14:04:16;99933.88;;;17.69
26158;BMP280;67284;44.782;10.282;2023-04-24T14:09:08;99932.97;;;17.70
26158;BMP280;67284;44.782;10.282;2023-04-24T14:14:00;99928.41;;;17.74
26158;BMP280;67284;44.782;10.282;2023-04-24T14:18:52;99925.78;;;17.91
26158;BMP280;67284;44.782;10.282;2023-04-24T14:23:44;99919.25;;;18.00
26158;BMP280;67284;44.782;10.282;2023-04-24T14:28:37;99916.59;;;18.01
26158;BMP280;67284;44.782;10.282;2023-04-24T14:33:29;99925.28;;;18.17
26158;BMP280;67284;44.782;10.282;2023-04-24T14:38:21;99932.94;;;18.20
26158;BMP280;67284;44.782;10.282;2023-04-24T14:43:13;99931.63;;;18.28
26158;BMP280;67284;44.782;10.282;2023-04-24T14:48:05;99934.69;;;18.36
26158;BMP280;67284;44.782;10.282;2023-04-24T14:52:57;99913.84;;;18.36
26158;BMP280;67284;44.782;10.282;2023-04-24T14:57:49;99918.72;;;18.42
26158;BMP280;67284;44.782;10.282;2023-04-24T15:02:41;99933.19;;;18.48
26158;BMP280;67284;44.782;10.282;2023-04-24T15:07:33;99936.69;;;18.47
26158;BMP280;67284;44.782;10.282;2023-04-24T15:12:27;99925.09;;;18.37
26158;BMP280;67284;44.782;10.282;2023-04-24T15:17:20;99929.88;;;18.29
26158;BMP280;67284;44.782;10.282;2023-04-24T15:22:13;99928.59;;;18.21
26158;BMP280;67284;44.782;10.282;2023-04-24T15:27:10;99928.91;;;18.15
26158;BMP280;67284;44.782;10.282;2023-04-24T15:32:02;99930.66;;;18.46
26158;BMP280;67284;44.782;10.282;2023-04-24T15:36:54;99931.00;;;18.40
26158;BMP280;67284;44.782;10.282;2023-04-24T15:41:46;99928.44;;;18.24
26158;BMP280;67284;44.782;10.282;2023-04-24T15:46:38;99932.16;;;18.35
26158;BMP280;67284;44.782;10.282;2023-04-24T15:51:30;99932.69;;;18.41
26158;BMP280;67284;44.782;10.282;2023-04-24T15:56:22;99936.44;;;18.36
26158;BMP280;67284;44.782;10.282;2023-04-24T16:01:23;99937.59;;;18.30
26158;BMP280;67284;44.782;10.282;2023-04-24T16:06:15;99941.03;;;18.31
26158;BMP280;67284;44.782;10.282;2023-04-24T16:11:07;99943.94;;;18.42
26158;BMP280;67284;44.782;10.282;2023-04-24T16:15:59;99923.50;;;18.34
26158;BMP280;67284;44.782;10.282;2023-04-24T16:20:51;99932.66;;;18.26
26158;BMP280;67284;44.782;10.282;2023-04-24T16:25:43;99938.44;;;18.31
26158;BMP280;67284;44.782;10.282;2023-04-24T16:30:35;99928.44;;;18.24
26158;BMP280;67284;44.782;10.282;2023-04-24T16:35:27;99921.03;;;18.31
26158;BMP280;67284;44.782;10.282;2023-04-24T16:40:19;99922.97;;;18.28
26158;BMP280;67284;44.782;10.282;2023-04-24T16:45:11;99918.84;;;18.24
26158;BMP280;67284;44.782;10.282;2023-04-24T16:50:03;99915.72;;;18.18
26158;BMP280;67284;44.782;10.282;2023-04-24T16:54:55;99915.09;;;18.13
26158;BMP280;67284;44.782;10.282;2023-04-24T16:59:47;99913.13;;;18.01
26158;BMP280;67284;44.782;10.282;2023-04-24T17:04:38;99913.03;;;18.02
26158;BMP280;67284;44.782;10.282;2023-04-24T17:09:30;99921.63;;;18.04
26158;BMP280;67284;44.782;10.282;2023-04-24T17:14:22;99916.41;;;18.04
26158;BMP280;67284;44.782;10.282;2023-04-24T17:19:17;99926.44;;;17.95
26158;BMP280;67284;44.782;10.282;2023-04-24T17:24:09;99936.19;;;17.91
26158;BMP280;67284;44.782;10.282;2023-04-24T17:29:00;99934.66;;;17.87
26158;BMP280;67284;44.782;10.282;2023-04-24T17:33:52;99936.34;;;17.88
26158;BMP280;67284;44.782;10.282;2023-04-24T17:38:44;99942.72;;;17.83
26158;BMP280;67284;44.782;10.282;2023-04-24T17:43:37;99952.41;;;17.79
26158;BMP280;67284;44.782;10.282;2023-04-24T17:48:28;99953.47;;;17.75
26158;BMP280;67284;44.782;10.282;2023-04-24T17:53:20;99962.44;;;17.70
26158;BMP280;67284;44.782;10.282;2023-04-24T17:58:13;99973.06;;;17.66
26158;BMP280;67284;44.782;10.282;2023-04-24T18:03:07;99970.78;;;17.60
26158;BMP280;67284;44.782;10.282;2023-04-24T18:08:00;99982.16;;;17.57
26158;BMP280;67284;44.782;10.282;2023-04-24T18:12:52;99984.16;;;17.52
26158;BMP280;67284;44.782;10.282;2023-04-24T18:17:44;99985.97;;;17.50
26158;BMP280;67284;44.782;10.282;2023-04-24T18:22:37;99983.59;;;17.46
26158;BMP280;67284;44.782;10.282;2023-04-24T18:27:29;99989.78;;;17.43
26158;BMP280;67284;44.782;10.282;2023-04-24T18:32:25;99990.94;;;17.38
26158;BMP280;67284;44.782;10.282;2023-04-24T18:37:17;99985.94;;;17.33
26158;BMP280;67284;44.782;10.282;2023-04-24T18:42:09;99994.81;;;17.29
26158;BMP280;67284;44.782;10.282;2023-04-24T18:47:01;100001.09;;;17.25
26158;BMP280;67284;44.782;10.282;2023-04-24T18:51:53;100006.53;;;17.19
26158;BMP280;67284;44.782;10.282;2023-04-24T18:56:45;100009.19;;;17.18
26158;BMP280;67284;44.782;10.282;2023-04-24T19:01:37;100020.56;;;17.16
26158;BMP280;67284;44.782;10.282;2023-04-24T19:06:29;100013.00;;;17.11
26158;BMP280;67284;44.782;10.282;2023-04-24T19:11:23;100012.31;;;17.08
26158;BMP280;67284;44.782;10.282;2023-04-24T19:16:16;100017.66;;;17.05
26158;BMP280;67284;44.782;10.282;2023-04-24T19:21:08;100017.00;;;17.00
26158;BMP280;67284;44.782;10.282;2023-04-24T19:25:59;100020.59;;;16.97
26158;BMP280;67284;44.782;10.282;2023-04-24T19:30:51;100016.47;;;16.93
26158;BMP280;67284;44.782;10.282;2023-04-24T19:35:43;100019.31;;;16.87
26158;BMP280;67284;44.782;10.282;2023-04-24T19:40:35;100020.31;;;16.85
26158;BMP280;67284;44.782;10.282;2023-04-24T19:45:27;100017.91;;;16.80
26158;BMP280;67284;44.782;10.282;2023-04-24T19:50:19;100020.81;;;16.74
26158;BMP280;67284;44.782;10.282;2023-04-24T19:55:10;100020.03;;;16.72
26158;BMP280;67284;44.782;10.282;2023-04-24T20:00:03;100018.50;;;16.68
26158;BMP280;67284;44.782;10.282;2023-04-24T20:04:55;100071.69;;;16.60
26158;BMP280;67284;44.782;10.282;2023-04-24T20:09:47;100090.16;;;16.53
26158;BMP280;67284;44.782;10.282;2023-04-24T20:14:39;100102.53;;;16.48
26158;BMP280;67284;44.782;10.282;2023-04-24T20:19:31;100119.88;;;16.47
26158;BMP280;67284;44.782;10.282;2023-04-24T20:24:23;100119.97;;;16.44
26158;BMP280;67284;44.782;10.282;2023-04-24T20:29:15;100123.44;;;16.45
26158;BMP280;67284;44.782;10.282;2023-04-24T20:34:06;100124.25;;;16.45
26158;BMP280;67284;44.782;10.282;2023-04-24T20:38:59;100124.41;;;16.42
26158;BMP280;67284;44.782;10.282;2023-04-24T20:43:51;100144.34;;;16.42
26158;BMP280;67284;44.782;10.282;2023-04-24T20:48:43;100136.69;;;16.39
26158;BMP280;67284;44.782;10.282;2023-04-24T20:53:35;100125.63;;;16.34
26158;BMP280;67284;44.782;10.282;2023-04-24T20:58:27;100136.16;;;16.31
26158;BMP280;67284;44.782;10.282;2023-04-24T21:03:18;100120.69;;;16.28
26158;BMP280;67284;44.782;10.282;2023-04-24T21:08:11;100112.13;;;16.26
26158;BMP280;67284;44.782;10.282;2023-04-24T21:13:03;100113.94;;;16.24
26158;BMP280;67284;44.782;10.282;2023-04-24T21:17:55;100107.03;;;16.23
26158;BMP280;67284;44.782;10.282;2023-04-24T21:22:47;100095.78;;;16.24
26158;BMP280;67284;44.782;10.282;2023-04-24T21:27:39;100097.53;;;16.22
26158;BMP280;67284;44.782;10.282;2023-04-24T21:32:31;100097.59;;;16.20
26158;BMP280;67284;44.782;10.282;2023-04-24T21:37:26;100099.44;;;16.18
26158;BMP280;67284;44.782;10.282;2023-04-24T21:42:18;100096.91;;;16.17
26158;BMP280;67284;44.782;10.282;2023-04-24T21:47:10;100099.69;;;16.13
26158;BMP280;67284;44.782;10.282;2023-04-24T21:52:02;100096.22;;;16.12
26158;BMP280;67284;44.782;10.282;2023-04-24T21:56:54;100097.28;;;16.08
26158;BMP280;67284;44.782;10.282;2023-04-24T22:01:46;100106.88;;;16.06
26158;BMP280;67284;44.782;10.282;2023-04-24T22:06:38;100122.50;;;16.05
26158;BMP280;67284;44.782;10.282;2023-04-24T22:11:30;100126.00;;;16.04
26158;BMP280;67284;44.782;10.282;2023-04-24T22:16:22;100130.41;;;16.02
26158;BMP280;67284;44.782;10.282;2023-04-24T22:21:14;100121.91;;;15.98
26158;BMP280;67284;44.782;10.282;2023-04-24T22:26:06;100118.66;;;15.93
26158;BMP280;67284;44.782;10.282;2023-04-24T22:30:59;100117.84;;;15.91
26158;BMP280;67284;44.782;10.282;2023-04-24T22:35:51;100115.31;;;15.90
26158;BMP280;67284;44.782;10.282;2023-04-24T22:40:42;100106.72;;;15.89
26158;BMP280;67284;44.782;10.282;2023-04-24T22:45:34;100111.91;;;15.89
26158;BMP280;67284;44.782;10.282;2023-04-24T22:50:26;100111.06;;;15.89
26158;BMP280;67284;44.782;10.282;2023-04-24T22:55:20;100101.53;;;15.89
26158;BMP280;67284;44.782;10.282;2023-04-24T23:00:12;100103.34;;;15.87
26158;BMP280;67284;44.782;10.282;2023-04-24T23:05:05;100112.03;;;15.86
26158;BMP280;67284;44.782;10.282;2023-04-24T23:09:57;100099.19;;;15.83
26158;BMP280;67284;44.782;10.282;2023-04-24T23:14:49;100085.31;;;15.84
26158;BMP280;67284;44.782;10.282;2023-04-24T23:19:41;100088.81;;;15.83
26158;BMP280;67284;44.782;10.282;2023-04-24T23:24:33;100079.25;;;15.84
26158;BMP280;67284;44.782;10.282;2023-04-24T23:29:24;100095.69;;;15.84
26158;BMP280;67284;44.782;10.282;2023-04-24T23:34:17;100087.91;;;15.84
26158;BMP280;67284;44.782;10.282;2023-04-24T23:39:10;100097.44;;;15.84
26158;BMP280;67284;44.782;10.282;2023-04-24T23:44:02;100103.56;;;15.81
26158;BMP280;67284;44.782;10.282;2023-04-24T23:48:54;100107.09;;;15.80
26158;BMP280;67284;44.782;10.282;2023-04-24T23:53:46;100110.72;;;15.76
26158;BMP280;67284;44.782;10.282;2023-04-24T23:58:38;100111.66;;;15.74
